createdAt,value
2018-09-03T00:01:15.958Z,22.80
2018-09-03T00:03:44.804Z,22.80
2018-09-03T00:06:13.963Z,22.60
2018-09-03T00:08:42.847Z,22.60
2018-09-03T00:11:11.650Z,23.30
2018-09-03T00:13:40.545Z,23.10
2018-09-03T00:16:09.368Z,22.80
2018-09-03T00:18:38.198Z,22.90
2018-09-03T00:21:07.015Z,22.80
2018-09-03T00:23:35.894Z,22.70
2018-09-03T00:26:04.790Z,22.70
2018-09-03T00:28:33.658Z,22.70
2018-09-03T00:31:07.995Z,22.60
2018-09-03T00:33:42.192Z,23.40
2018-09-03T00:37:15.186Z,22.70
2018-09-03T00:39:49.442Z,23.10
2018-09-03T00:42:23.641Z,23.10
2018-09-03T00:44:57.815Z,23.10
2018-09-03T00:47:26.611Z,22.90
2018-09-03T00:49:55.463Z,22.80
2018-09-03T00:52:24.296Z,22.90
2018-09-03T00:54:53.140Z,22.90
2018-09-03T00:57:21.938Z,23.00
2018-09-03T00:59:50.842Z,22.90
2018-09-03T01:02:19.716Z,23.00
2018-09-03T01:04:48.528Z,23.10
2018-09-03T01:07:17.413Z,23.10
2018-09-03T01:09:46.289Z,23.20
2018-09-03T01:12:15.198Z,23.40
2018-09-03T01:14:44.060Z,24.60
2018-09-03T01:17:12.968Z,23.40
2018-09-03T01:19:41.804Z,23.80
2018-09-03T01:22:10.639Z,23.70
2018-09-03T01:24:39.465Z,23.70
2018-09-03T01:27:08.271Z,23.70
2018-09-03T01:29:37.188Z,23.70
2018-09-03T01:32:06.020Z,24.60
2018-09-03T01:34:34.877Z,26.70
2018-09-03T01:37:03.749Z,25.50
2018-09-03T01:39:32.599Z,26.10
2018-09-03T01:42:01.442Z,27.30
2018-09-03T01:44:30.247Z,27.90
2018-09-03T01:46:59.118Z,28.50
2018-09-03T01:49:27.959Z,28.40
2018-09-03T01:51:56.808Z,28.50
2018-09-03T01:54:25.660Z,28.80
2018-09-03T01:56:54.634Z,28.20
2018-09-03T01:59:23.445Z,29.00
2018-09-03T02:01:52.324Z,27.90
2018-09-03T02:04:21.203Z,27.50
2018-09-03T02:06:50.040Z,27.60
2018-09-03T02:09:18.895Z,27.70
2018-09-03T02:11:47.707Z,27.40
2018-09-03T02:14:16.535Z,27.80
2018-09-03T02:16:45.398Z,27.40
2018-09-03T02:19:14.307Z,27.20
2018-09-03T02:21:43.164Z,27.20
2018-09-03T02:24:12.012Z,27.00
2018-09-03T02:26:40.900Z,26.90
2018-09-03T02:29:09.726Z,27.40
2018-09-03T02:31:38.605Z,27.60
2018-09-03T02:34:07.444Z,27.40
2018-09-03T02:36:36.296Z,27.50
2018-09-03T02:39:07.029Z,27.60
2018-09-03T02:41:35.863Z,27.90
2018-09-03T02:44:04.735Z,27.50
2018-09-03T02:46:33.648Z,27.60
2018-09-03T02:49:02.474Z,27.90
2018-09-03T02:51:31.299Z,27.90
2018-09-03T02:54:00.164Z,28.10
2018-09-03T02:56:28.977Z,28.10
2018-09-03T02:58:57.840Z,28.50
2018-09-03T03:01:26.667Z,28.30
2018-09-03T03:03:55.537Z,28.40
2018-09-03T03:06:24.385Z,28.30
2018-09-03T03:08:53.236Z,28.30
2018-09-03T03:11:22.062Z,28.30
2018-09-03T03:13:50.879Z,28.60
2018-09-03T03:16:19.713Z,28.30
2018-09-03T03:18:48.583Z,28.20
2018-09-03T03:21:17.411Z,28.40
2018-09-03T03:23:46.260Z,28.60
2018-09-03T03:26:15.104Z,28.40
2018-09-03T03:28:44.010Z,28.30
2018-09-03T03:31:12.868Z,28.40
2018-09-03T03:33:41.728Z,28.50
2018-09-03T03:36:10.523Z,28.80
2018-09-03T03:38:39.433Z,28.60
2018-09-03T03:41:08.302Z,28.50
2018-09-03T03:43:37.102Z,28.70
2018-09-03T03:46:05.977Z,28.60
2018-09-03T03:48:34.874Z,28.40
2018-09-03T03:51:03.688Z,28.80
2018-09-03T03:53:32.534Z,29.00
2018-09-03T03:56:01.373Z,29.00
2018-09-03T03:58:30.286Z,28.90
2018-09-03T04:00:59.120Z,28.90
2018-09-03T04:03:27.992Z,29.00
2018-09-03T04:05:56.783Z,29.10
2018-09-03T04:08:25.612Z,29.30
2018-09-03T04:10:54.490Z,29.70
2018-09-03T04:13:23.323Z,29.80
2018-09-03T04:15:52.179Z,30.00
2018-09-03T04:18:21.024Z,30.20
2018-09-03T04:20:49.868Z,30.40
2018-09-03T04:23:18.999Z,30.40
2018-09-03T04:25:47.670Z,30.20
2018-09-03T04:28:16.520Z,30.20
2018-09-03T04:30:45.375Z,30.40
2018-09-03T04:33:14.220Z,30.60
2018-09-03T04:35:43.056Z,30.80
2018-09-03T04:38:11.927Z,31.10
2018-09-03T04:40:40.794Z,31.00
2018-09-03T04:43:09.648Z,31.10
2018-09-03T04:45:38.512Z,31.30
2018-09-03T04:48:07.451Z,31.40
2018-09-03T04:50:36.253Z,31.30
2018-09-03T04:53:05.228Z,31.30
2018-09-03T04:55:34.082Z,31.10
2018-09-03T04:58:02.933Z,31.10
2018-09-03T05:00:31.808Z,30.90
2018-09-03T05:03:00.676Z,30.90
2018-09-03T05:05:29.500Z,30.70
2018-09-03T05:07:58.298Z,30.70
2018-09-03T05:10:27.794Z,30.60
2018-09-03T05:12:56.915Z,30.40
2018-09-03T05:15:25.731Z,30.30
2018-09-03T05:17:54.564Z,30.10
2018-09-03T05:20:23.384Z,29.90
2018-09-03T05:22:52.221Z,30.00
2018-09-03T05:25:21.081Z,29.50
2018-09-03T05:27:49.920Z,29.30
2018-09-03T05:30:18.783Z,29.00
2018-09-03T05:32:47.631Z,29.10
2018-09-03T05:35:16.470Z,28.80
2018-09-03T05:37:45.246Z,28.50
2018-09-03T05:40:14.053Z,28.60
2018-09-03T05:42:42.909Z,28.60
2018-09-03T05:45:11.698Z,28.30
2018-09-03T05:47:40.527Z,28.10
2018-09-03T05:50:09.407Z,28.30
2018-09-03T05:52:38.293Z,27.80
2018-09-03T05:55:07.121Z,27.50
2018-09-03T05:57:35.937Z,27.40
2018-09-03T06:00:05.268Z,27.30
2018-09-03T06:02:34.119Z,27.30
2018-09-03T06:05:02.988Z,26.80
2018-09-03T06:07:31.840Z,26.60
2018-09-03T06:10:00.667Z,26.20
2018-09-03T06:12:29.557Z,26.10
2018-09-03T06:14:58.399Z,25.70
2018-09-03T06:17:27.277Z,25.30
2018-09-03T06:19:56.144Z,25.40
2018-09-03T06:22:24.943Z,25.40
2018-09-03T06:24:53.875Z,25.50
2018-09-03T06:27:22.733Z,24.70
2018-09-03T06:29:51.597Z,24.40
2018-09-03T06:32:20.431Z,24.10
2018-09-03T06:34:49.242Z,23.30
2018-09-03T06:37:18.111Z,23.40
2018-09-03T06:39:46.964Z,23.40
2018-09-03T06:42:15.806Z,23.10
2018-09-03T06:44:44.652Z,23.00
2018-09-03T06:47:13.687Z,22.60
2018-09-03T06:49:42.519Z,22.60
2018-09-03T06:52:11.400Z,21.80
2018-09-03T06:54:40.301Z,21.80
2018-09-03T06:57:09.168Z,21.70
2018-09-03T06:59:38.067Z,21.00
2018-09-03T07:02:07.934Z,20.40
2018-09-03T07:04:37.090Z,21.40
2018-09-03T07:07:06.702Z,19.80
2018-09-03T07:09:35.566Z,19.30
2018-09-03T07:12:04.646Z,18.90
2018-09-03T07:14:33.475Z,18.30
2018-09-03T07:17:02.363Z,18.10
2018-09-03T07:19:31.251Z,17.30
2018-09-03T07:22:00.161Z,16.70
2018-09-03T07:24:29.000Z,16.90
2018-09-03T07:26:57.806Z,16.70
2018-09-03T07:29:26.615Z,16.70
2018-09-03T07:31:55.476Z,16.80
2018-09-03T07:34:24.328Z,16.70
2018-09-03T07:36:53.252Z,16.70
2018-09-03T07:39:22.096Z,16.90
2018-09-03T07:41:50.931Z,16.90
2018-09-03T07:44:19.747Z,16.90
2018-09-03T07:46:48.629Z,16.10
2018-09-03T07:49:17.581Z,14.90
2018-09-03T07:51:46.493Z,14.30
2018-09-03T07:54:15.366Z,13.80
2018-09-03T07:56:44.232Z,12.90
2018-09-03T07:59:13.112Z,12.50
2018-09-03T08:01:42.020Z,11.90
2018-09-03T08:04:10.955Z,11.40
2018-09-03T08:06:39.782Z,10.80
2018-09-03T08:09:10.415Z,10.00
2018-09-03T08:11:39.378Z,9.20
2018-09-03T08:14:08.087Z,9.10
2018-09-03T08:16:36.878Z,9.10
2018-09-03T08:22:03.482Z,8.40
2018-09-03T08:24:32.336Z,8.30
2018-09-03T08:27:01.247Z,8.00
2018-09-03T08:29:30.114Z,8.50
2018-09-03T08:31:58.963Z,8.00
2018-09-03T08:34:27.762Z,7.80
2018-09-03T08:36:56.596Z,7.70
2018-09-03T08:39:25.407Z,7.90
2018-09-03T08:41:54.257Z,7.40
2018-09-03T08:44:23.095Z,7.30
2018-09-03T08:46:51.964Z,6.80
2018-09-03T08:49:20.818Z,6.90
2018-09-03T08:51:49.706Z,6.60
2018-09-03T08:54:18.596Z,6.60
2018-09-03T08:56:47.487Z,6.30
2018-09-03T08:59:16.262Z,6.10
2018-09-03T09:01:45.095Z,5.60
2018-09-03T09:04:13.916Z,5.30
2018-09-03T09:06:42.781Z,4.80
2018-09-03T09:09:11.650Z,4.60
2018-09-03T09:11:40.502Z,4.20
2018-09-03T09:14:09.332Z,4.30
2018-09-03T09:16:38.176Z,3.70
2018-09-03T09:19:07.057Z,4.40
2018-09-03T09:21:35.929Z,4.30
2018-09-03T09:24:04.848Z,4.30
2018-09-03T09:26:33.714Z,4.30
2018-09-03T09:29:02.602Z,4.40
2018-09-03T09:31:31.419Z,4.50
2018-09-03T09:34:00.231Z,4.50
2018-09-03T09:36:29.023Z,4.50
2018-09-03T09:38:57.932Z,4.90
2018-09-03T09:41:26.793Z,4.70
2018-09-03T09:43:55.605Z,4.40
2018-09-03T09:46:24.432Z,4.50
2018-09-03T09:48:53.280Z,4.10
2018-09-03T09:51:22.131Z,3.70
2018-09-03T09:53:50.956Z,3.10
2018-09-03T09:56:19.827Z,2.80
2018-09-03T09:58:48.615Z,2.70
2018-09-03T10:01:22.978Z,2.90
2018-09-03T10:03:51.790Z,2.40
2018-09-03T10:06:20.685Z,2.20
2018-09-03T10:08:49.536Z,1.70
2018-09-03T10:11:18.363Z,1.20
2018-09-03T10:13:47.232Z,1.00
2018-09-03T10:16:16.143Z,1.00
2018-09-03T10:18:44.936Z,1.10
2018-09-03T10:21:13.744Z,1.20
2018-09-03T10:23:42.580Z,1.20
2018-09-03T10:26:11.537Z,1.00
2018-09-03T10:28:40.380Z,1.00
2018-09-03T10:31:09.190Z,1.00
2018-09-03T10:33:38.219Z,1.00
2018-09-03T10:36:07.068Z,1.00
2018-09-03T10:38:36.049Z,1.00
2018-09-03T10:41:04.920Z,1.00
2018-09-03T10:43:33.808Z,1.00
2018-09-03T10:46:02.668Z,1.00
2018-09-03T10:48:31.461Z,1.00
2018-09-03T10:51:00.314Z,1.00
2018-09-03T10:53:29.176Z,1.00
2018-09-03T10:55:58.050Z,1.00
2018-09-03T10:58:26.901Z,1.00
2018-09-03T11:00:55.719Z,1.00
2018-09-03T11:03:24.568Z,1.00
2018-09-03T11:05:53.418Z,1.00
2018-09-03T11:08:22.289Z,1.00
2018-09-03T11:13:19.847Z,1.00
2018-09-03T11:15:48.675Z,1.00
2018-09-03T11:18:17.561Z,1.00
2018-09-03T11:20:46.442Z,1.00
2018-09-03T11:23:15.276Z,1.00
2018-09-03T11:25:44.071Z,1.00
2018-09-03T11:28:12.917Z,1.00
2018-09-03T11:30:41.820Z,1.00
2018-09-03T11:33:10.742Z,1.00
2018-09-03T11:35:39.563Z,1.00
2018-09-03T11:38:08.408Z,1.00
2018-09-03T11:40:37.269Z,1.00
2018-09-03T11:43:06.303Z,1.00
2018-09-03T11:45:35.097Z,1.00
2018-09-03T11:48:03.924Z,1.00
2018-09-03T11:50:32.751Z,1.00
2018-09-03T11:53:01.575Z,1.00
2018-09-03T11:55:30.469Z,1.00
2018-09-03T11:57:59.277Z,1.00
2018-09-03T12:00:29.735Z,1.00
2018-09-03T12:02:59.111Z,1.00
2018-09-03T12:05:28.829Z,1.00
2018-09-03T12:07:57.683Z,1.00
2018-09-03T12:10:26.536Z,1.00
2018-09-03T12:12:55.437Z,1.00
2018-09-03T12:15:31.558Z,1.00
2018-09-03T12:18:00.433Z,1.00
2018-09-03T12:20:29.246Z,1.00
2018-09-03T12:22:58.106Z,1.00
2018-09-03T12:25:26.927Z,1.00
2018-09-03T12:27:58.364Z,1.00
2018-09-03T12:30:27.382Z,1.00
2018-09-03T12:32:56.253Z,1.00
2018-09-03T12:35:25.172Z,1.00
2018-09-03T12:37:54.031Z,1.00
2018-09-03T12:40:22.928Z,1.00
2018-09-03T12:42:51.836Z,1.00
2018-09-03T12:45:24.795Z,1.00
2018-09-03T12:47:53.653Z,1.00
2018-09-03T12:50:22.680Z,1.00
2018-09-03T12:52:51.491Z,1.00
2018-09-03T12:55:20.361Z,1.00
2018-09-03T12:57:49.219Z,1.00
2018-09-03T13:00:21.607Z,1.00
2018-09-03T13:02:50.896Z,1.00
2018-09-03T13:05:20.403Z,1.00
2018-09-03T13:07:49.661Z,1.00
2018-09-03T13:10:18.490Z,1.00
2018-09-03T13:12:47.462Z,1.00
2018-09-03T13:15:16.419Z,1.00
2018-09-03T13:17:45.243Z,1.00
2018-09-03T13:20:14.333Z,1.00
2018-09-03T13:22:44.667Z,1.00
2018-09-03T13:25:13.505Z,1.00
2018-09-03T13:27:43.882Z,1.00
2018-09-03T13:30:12.711Z,1.00
2018-09-03T13:32:41.606Z,1.00
2018-09-03T13:35:11.453Z,1.00
2018-09-03T13:37:40.316Z,1.00
2018-09-03T13:40:09.252Z,1.00
2018-09-03T13:42:39.789Z,1.00
2018-09-03T13:45:08.789Z,1.00
2018-09-03T13:47:37.628Z,1.00
2018-09-03T13:50:06.875Z,1.00
2018-09-03T13:52:35.820Z,1.00
2018-09-03T13:55:04.955Z,1.00
2018-09-03T13:57:34.524Z,1.00
2018-09-03T14:00:03.421Z,1.00
2018-09-03T14:02:32.543Z,1.00
2018-09-03T14:05:01.417Z,1.00
2018-09-03T14:07:30.268Z,1.00
2018-09-03T14:09:59.228Z,1.00
2018-09-03T14:12:28.007Z,1.00
2018-09-03T14:17:53.974Z,1.00
2018-09-03T14:23:19.711Z,1.00
2018-09-03T14:25:48.645Z,1.00
2018-09-03T14:28:17.598Z,1.00
2018-09-03T14:30:46.481Z,1.00
2018-09-03T14:33:15.375Z,1.00
2018-09-03T14:35:44.264Z,1.00
2018-09-03T14:38:13.110Z,1.00
2018-09-03T14:40:41.972Z,1.00
2018-09-03T14:43:10.890Z,1.00
2018-09-03T14:45:39.720Z,1.00
2018-09-03T14:48:08.581Z,1.00
2018-09-03T14:50:37.408Z,1.00
2018-09-03T14:53:06.207Z,1.00
2018-09-03T14:55:35.080Z,1.00
2018-09-03T14:58:03.924Z,1.00
2018-09-03T15:00:32.870Z,1.00
2018-09-03T15:03:01.700Z,1.00
2018-09-03T15:07:59.623Z,1.00
2018-09-03T15:10:28.514Z,1.00
2018-09-03T15:12:57.313Z,1.00
2018-09-03T15:15:32.489Z,1.00
2018-09-03T15:18:01.333Z,1.00
2018-09-03T15:20:30.179Z,1.00
2018-09-03T15:22:59.147Z,1.00
2018-09-03T15:25:30.845Z,1.00
2018-09-03T15:27:59.696Z,1.00
2018-09-03T15:30:28.681Z,1.00
2018-09-03T15:32:57.512Z,1.00
2018-09-03T15:35:26.429Z,1.00
2018-09-03T15:37:55.264Z,1.00
2018-09-03T15:40:24.180Z,1.00
2018-09-03T15:42:53.194Z,1.00
2018-09-03T15:45:22.007Z,1.00
2018-09-03T15:47:50.897Z,1.00
2018-09-03T15:53:17.352Z,1.00
2018-09-03T15:55:46.259Z,1.00
2018-09-03T15:58:15.126Z,1.00
2018-09-03T16:00:44.026Z,1.00
2018-09-03T16:03:12.905Z,1.00
2018-09-03T16:05:41.716Z,1.00
2018-09-03T16:08:10.558Z,1.00
2018-09-03T16:10:39.356Z,1.00
2018-09-03T16:13:08.168Z,1.00
2018-09-03T16:15:37.050Z,1.00
2018-09-03T16:18:07.313Z,1.00
2018-09-03T16:20:36.193Z,1.00
2018-09-03T16:23:05.018Z,1.00
2018-09-03T16:25:33.859Z,1.00
2018-09-03T16:28:02.984Z,1.00
2018-09-03T16:30:31.963Z,1.00
2018-09-03T16:33:00.811Z,1.00
2018-09-03T16:35:29.621Z,1.00
2018-09-03T16:37:58.476Z,1.00
2018-09-03T16:40:27.327Z,1.00
2018-09-03T16:42:56.213Z,1.00
2018-09-03T16:45:25.063Z,1.00
2018-09-03T16:47:53.890Z,1.00
2018-09-03T16:50:22.739Z,1.00
2018-09-03T16:52:51.641Z,1.00
2018-09-03T16:55:20.732Z,1.00
2018-09-03T16:57:50.312Z,1.00
2018-09-03T17:00:19.122Z,1.00
2018-09-03T17:02:48.021Z,1.00
2018-09-03T17:10:23.056Z,1.50
2018-09-03T17:12:53.520Z,1.00
2018-09-03T17:15:22.359Z,1.00
2018-09-03T17:17:51.261Z,1.00
2018-09-03T17:20:20.098Z,1.00
2018-09-03T17:22:48.932Z,1.00
2018-09-03T17:25:17.780Z,1.00
2018-09-03T17:27:46.705Z,1.00
2018-09-03T17:30:15.589Z,1.00
2018-09-03T17:32:46.395Z,1.00
2018-09-03T17:35:15.297Z,1.00
2018-09-03T17:37:44.163Z,1.00
2018-09-03T17:40:13.036Z,1.20
2018-09-03T17:42:41.926Z,1.70
2018-09-03T17:45:10.816Z,2.10
2018-09-03T17:47:40.287Z,2.70
2018-09-03T17:50:09.549Z,2.80
2018-09-03T17:52:38.444Z,3.30
2018-09-03T17:55:08.785Z,3.70
2018-09-03T17:57:37.635Z,3.60
2018-09-03T18:00:06.641Z,4.70
2018-09-03T18:02:35.454Z,5.20
2018-09-03T18:05:04.299Z,7.00
2018-09-03T18:07:33.155Z,6.80
2018-09-03T18:10:02.005Z,8.10
2018-09-03T18:12:30.877Z,8.10
2018-09-03T18:14:59.736Z,8.70
2018-09-03T18:17:28.597Z,9.40
2018-09-03T18:19:57.488Z,9.90
2018-09-03T18:22:26.335Z,10.10
2018-09-03T18:24:55.214Z,10.60
2018-09-03T18:27:24.035Z,11.20
2018-09-03T18:29:52.907Z,11.70
2018-09-03T18:32:21.761Z,12.00
2018-09-03T18:34:50.586Z,12.10
2018-09-03T18:37:19.476Z,12.60
2018-09-03T18:39:48.570Z,12.90
2018-09-03T18:42:17.439Z,13.10
2018-09-03T18:44:46.276Z,13.10
2018-09-03T18:47:15.251Z,13.50
2018-09-03T18:49:44.046Z,13.60
2018-09-03T18:52:12.899Z,13.90
2018-09-03T18:54:41.739Z,14.30
2018-09-03T18:57:10.673Z,14.40
2018-09-03T18:59:39.486Z,14.50
2018-09-03T19:02:08.332Z,14.60
2018-09-03T19:04:37.191Z,14.90
2018-09-03T19:07:06.039Z,15.80
2018-09-03T19:09:34.913Z,15.20
2018-09-03T19:12:03.731Z,15.50
2018-09-03T19:14:32.630Z,15.60
2018-09-03T19:17:01.445Z,15.90
2018-09-03T19:19:30.255Z,16.30
2018-09-03T19:21:59.097Z,16.20
2018-09-03T19:24:27.939Z,16.20
2018-09-03T19:26:56.743Z,16.30
2018-09-03T19:29:25.581Z,16.20
2018-09-03T19:31:54.397Z,16.10
2018-09-03T19:34:23.201Z,16.10
2018-09-03T19:36:52.153Z,16.00
2018-09-03T19:39:21.110Z,16.40
2018-09-03T19:41:50.020Z,16.70
2018-09-03T19:44:20.298Z,17.10
2018-09-03T19:46:49.285Z,17.20
2018-09-03T19:49:18.132Z,17.30
2018-09-03T19:51:46.979Z,17.50
2018-09-03T19:54:15.812Z,17.70
2018-09-03T19:56:44.683Z,17.90
2018-09-03T19:59:13.636Z,18.00
2018-09-03T20:01:42.561Z,18.30
2018-09-03T20:04:11.436Z,18.50
2018-09-03T20:06:40.296Z,18.70
2018-09-03T20:09:09.321Z,19.40
2018-09-03T20:11:38.569Z,19.10
2018-09-03T20:14:07.781Z,19.20
2018-09-03T20:16:36.951Z,19.20
2018-09-03T20:19:05.948Z,19.30
2018-09-03T20:21:34.822Z,19.60
2018-09-03T20:24:03.638Z,19.90
2018-09-03T20:26:32.479Z,19.90
2018-09-03T20:29:01.317Z,20.00
2018-09-03T20:31:30.151Z,20.30
2018-09-03T20:33:59.025Z,20.20
2018-09-03T20:36:27.936Z,20.60
2018-09-03T20:38:56.739Z,20.70
2018-09-03T20:41:25.607Z,21.00
2018-09-03T20:43:54.436Z,21.20
2018-09-03T20:46:23.371Z,21.40
2018-09-03T20:48:52.152Z,21.60
2018-09-03T20:51:20.992Z,21.70
2018-09-03T20:53:49.858Z,21.80
2018-09-03T20:56:18.759Z,21.90
2018-09-03T20:58:47.608Z,22.10
2018-09-03T21:01:16.463Z,22.20
2018-09-03T21:03:45.293Z,22.30
2018-09-03T21:06:14.137Z,22.60
2018-09-03T21:08:42.961Z,22.70
2018-09-03T21:11:11.815Z,23.00
2018-09-03T21:13:40.623Z,23.20
2018-09-03T21:16:09.492Z,23.20
2018-09-03T21:18:38.526Z,23.30
2018-09-03T21:21:07.385Z,23.40
2018-09-03T21:23:36.194Z,23.40
2018-09-03T21:26:05.136Z,23.60
2018-09-03T21:28:34.008Z,23.70
2018-09-03T21:31:02.872Z,23.70
2018-09-03T21:33:31.747Z,23.70
2018-09-03T21:36:00.579Z,23.70
2018-09-03T21:38:29.476Z,23.90
2018-09-03T21:40:58.360Z,24.20
2018-09-03T21:43:27.291Z,24.30
2018-09-03T21:45:56.139Z,24.10
2018-09-03T21:48:25.025Z,24.30
2018-09-03T21:50:54.015Z,24.60
2018-09-03T21:53:22.886Z,24.50
2018-09-03T21:55:51.739Z,24.50
2018-09-03T21:58:20.603Z,25.90
2018-09-03T22:00:49.501Z,24.70
2018-09-03T22:03:18.347Z,24.70
2018-09-03T22:05:47.259Z,24.70
2018-09-03T22:08:16.074Z,24.70
2018-09-03T22:10:44.975Z,24.60
2018-09-03T22:13:13.819Z,24.60
2018-09-03T22:15:42.728Z,25.10
2018-09-03T22:18:11.915Z,25.70
2018-09-03T22:20:40.719Z,25.90
2018-09-03T22:23:09.596Z,26.30
2018-09-03T22:25:38.460Z,26.50
2018-09-03T22:28:07.299Z,26.60
2018-09-03T22:30:36.155Z,26.90
2018-09-03T22:33:04.955Z,27.10
2018-09-03T22:35:33.800Z,27.40
2018-09-03T22:38:02.602Z,27.90
2018-09-03T22:40:31.429Z,28.30
2018-09-03T22:43:00.294Z,28.40
2018-09-03T22:45:29.143Z,28.50
2018-09-03T22:47:58.004Z,28.90
2018-09-03T22:50:26.859Z,29.20
2018-09-03T22:52:55.655Z,29.30
2018-09-03T22:55:24.463Z,29.70
2018-09-03T22:57:53.377Z,29.70
2018-09-03T23:00:22.223Z,29.90
2018-09-03T23:02:51.067Z,30.30
2018-09-03T23:05:19.895Z,30.30
2018-09-03T23:07:48.699Z,31.10
2018-09-03T23:10:17.514Z,31.10
2018-09-03T23:12:46.345Z,31.40
2018-09-03T23:15:15.233Z,31.60
2018-09-03T23:17:44.075Z,31.80
2018-09-03T23:20:12.920Z,32.00
2018-09-03T23:22:41.775Z,32.30
2018-09-03T23:25:10.629Z,32.50
2018-09-03T23:27:39.492Z,32.60
2018-09-03T23:30:08.314Z,32.70
2018-09-03T23:32:37.166Z,32.90
2018-09-03T23:35:06.182Z,33.10
2018-09-03T23:37:35.070Z,33.60
2018-09-03T23:40:03.923Z,33.90
2018-09-03T23:42:32.756Z,35.10
2018-09-03T23:45:01.632Z,34.10
2018-09-03T23:47:30.489Z,34.50
2018-09-03T23:49:59.352Z,34.90
2018-09-03T23:52:28.162Z,35.10
2018-09-03T23:54:56.997Z,35.30
2018-09-03T23:57:25.851Z,35.30
2018-09-03T23:59:54.676Z,35.30
